sensor_id;sensor_type;location;lat;lon;timestamp;P1;durP1;ratioP1;P2;durP2;ratioP2
11651;SDS011;5882;48.818;9.114;2022-11-21T00:00:06;1.00;;;1.00;;
11651;SDS011;5882;48.818;9.114;2022-11-21T00:02:35;0.68;;;0.68;;
11651;SDS011;5882;48.818;9.114;2022-11-21T00:05:01;0.70;;;0.70;;
11651;SDS011;5882;48.818;9.114;2022-11-21T00:07:28;0.70;;;0.70;;
11651;SDS011;5882;48.818;9.114;2022-11-21T00:09:54;1.13;;;0.70;;
11651;SDS011;5882;48.818;9.114;2022-11-21T00:12:22;0.70;;;0.70;;
11651;SDS011;5882;48.818;9.114;2022-11-21T00:14:49;0.70;;;0.70;;
11651;SDS011;5882;48.818;9.114;2022-11-21T00:17:15;0.70;;;0.70;;
11651;SDS011;5882;48.818;9.114;2022-11-21T00:19:42;0.70;;;0.70;;
11651;SDS011;5882;48.818;9.114;2022-11-21T00:22:08;0.70;;;0.70;;
11651;SDS011;5882;48.818;9.114;2022-11-21T00:24:35;0.70;;;0.70;;
11651;SDS011;5882;48.818;9.114;2022-11-21T00:27:05;0.60;;;0.60;;
11651;SDS011;5882;48.818;9.114;2022-11-21T00:29:33;0.75;;;0.75;;
11651;SDS011;5882;48.818;9.114;2022-11-21T00:31:59;0.60;;;0.60;;
11651;SDS011;5882;48.818;9.114;2022-11-21T00:34:26;0.60;;;0.60;;
11651;SDS011;5882;48.818;9.114;2022-11-21T00:36:55;0.73;;;0.73;;
11651;SDS011;5882;48.818;9.114;2022-11-21T00:39:22;0.70;;;0.70;;
11651;SDS011;5882;48.818;9.114;2022-11-21T00:41:48;0.70;;;0.70;;
11651;SDS011;5882;48.818;9.114;2022-11-21T00:44:14;0.60;;;0.60;;
11651;SDS011;5882;48.818;9.114;2022-11-21T00:46:42;0.70;;;0.70;;
11651;SDS011;5882;48.818;9.114;2022-11-21T00:49:09;0.70;;;0.70;;
11651;SDS011;5882;48.818;9.114;2022-11-21T00:51:35;0.60;;;0.60;;
11651;SDS011;5882;48.818;9.114;2022-11-21T00:54:02;0.63;;;0.63;;
11651;SDS011;5882;48.818;9.114;2022-11-21T00:56:28;0.60;;;0.60;;
11651;SDS011;5882;48.818;9.114;2022-11-21T00:58:55;0.80;;;0.80;;
11651;SDS011;5882;48.818;9.114;2022-11-21T01:01:21;0.60;;;0.60;;
11651;SDS011;5882;48.818;9.114;2022-11-21T01:03:49;0.60;;;0.60;;
11651;SDS011;5882;48.818;9.114;2022-11-21T01:06:16;0.60;;;0.60;;
11651;SDS011;5882;48.818;9.114;2022-11-21T01:08:43;0.85;;;0.70;;
11651;SDS011;5882;48.818;9.114;2022-11-21T01:11:11;1.30;;;0.88;;
11651;SDS011;5882;48.818;9.114;2022-11-21T01:13:38;0.80;;;0.80;;
11651;SDS011;5882;48.818;9.114;2022-11-21T01:16:05;0.65;;;0.65;;
11651;SDS011;5882;48.818;9.114;2022-11-21T01:18:32;0.70;;;0.70;;
11651;SDS011;5882;48.818;9.114;2022-11-21T01:21:00;1.35;;;0.90;;
11651;SDS011;5882;48.818;9.114;2022-11-21T01:23:27;3.03;;;0.80;;
11651;SDS011;5882;48.818;9.114;2022-11-21T01:25:53;0.90;;;0.80;;
11651;SDS011;5882;48.818;9.114;2022-11-21T01:28:20;0.80;;;0.80;;
11651;SDS011;5882;48.818;9.114;2022-11-21T01:30:47;0.70;;;0.70;;
11651;SDS011;5882;48.818;9.114;2022-11-21T01:33:13;0.60;;;0.60;;
11651;SDS011;5882;48.818;9.114;2022-11-21T01:35:40;1.27;;;0.80;;
11651;SDS011;5882;48.818;9.114;2022-11-21T01:38:08;0.70;;;0.70;;
11651;SDS011;5882;48.818;9.114;2022-11-21T01:40:36;0.90;;;0.60;;
11651;SDS011;5882;48.818;9.114;2022-11-21T01:43:08;0.90;;;0.68;;
11651;SDS011;5882;48.818;9.114;2022-11-21T01:45:50;0.70;;;0.70;;
11651;SDS011;5882;48.818;9.114;2022-11-21T01:48:18;0.70;;;0.70;;
11651;SDS011;5882;48.818;9.114;2022-11-21T01:50:46;0.70;;;0.70;;
11651;SDS011;5882;48.818;9.114;2022-11-21T01:53:14;1.98;;;0.70;;
11651;SDS011;5882;48.818;9.114;2022-11-21T01:55:41;1.92;;;0.80;;
11651;SDS011;5882;48.818;9.114;2022-11-21T01:58:07;2.70;;;0.70;;
11651;SDS011;5882;48.818;9.114;2022-11-21T02:00:34;1.17;;;0.77;;
11651;SDS011;5882;48.818;9.114;2022-11-21T02:03:04;0.70;;;0.70;;
11651;SDS011;5882;48.818;9.114;2022-11-21T02:05:32;0.70;;;0.70;;
11651;SDS011;5882;48.818;9.114;2022-11-21T02:08:01;0.68;;;0.68;;
11651;SDS011;5882;48.818;9.114;2022-11-21T02:10:30;0.75;;;0.75;;
11651;SDS011;5882;48.818;9.114;2022-11-21T02:12:57;0.80;;;0.80;;
11651;SDS011;5882;48.818;9.114;2022-11-21T02:15:25;0.70;;;0.70;;
11651;SDS011;5882;48.818;9.114;2022-11-21T02:17:52;0.80;;;0.80;;
11651;SDS011;5882;48.818;9.114;2022-11-21T02:20:19;0.77;;;0.77;;
11651;SDS011;5882;48.818;9.114;2022-11-21T02:22:50;1.05;;;0.70;;
11651;SDS011;5882;48.818;9.114;2022-11-21T02:25:21;2.03;;;0.75;;
11651;SDS011;5882;48.818;9.114;2022-11-21T02:27:49;0.70;;;0.70;;
11651;SDS011;5882;48.818;9.114;2022-11-21T02:30:18;0.70;;;0.70;;
11651;SDS011;5882;48.818;9.114;2022-11-21T02:32:44;0.70;;;0.70;;
11651;SDS011;5882;48.818;9.114;2022-11-21T02:35:12;0.70;;;0.70;;
11651;SDS011;5882;48.818;9.114;2022-11-21T02:37:39;0.60;;;0.60;;
11651;SDS011;5882;48.818;9.114;2022-11-21T02:40:09;1.33;;;1.00;;
11651;SDS011;5882;48.818;9.114;2022-11-21T02:42:39;0.70;;;0.70;;
11651;SDS011;5882;48.818;9.114;2022-11-21T02:45:08;1.02;;;0.70;;
11651;SDS011;5882;48.818;9.114;2022-11-21T02:47:37;0.70;;;0.70;;
11651;SDS011;5882;48.818;9.114;2022-11-21T02:50:07;0.95;;;0.70;;
11651;SDS011;5882;48.818;9.114;2022-11-21T02:52:35;0.70;;;0.70;;
11651;SDS011;5882;48.818;9.114;2022-11-21T02:55:02;0.60;;;0.60;;
11651;SDS011;5882;48.818;9.114;2022-11-21T02:57:28;0.70;;;0.70;;
11651;SDS011;5882;48.818;9.114;2022-11-21T02:59:56;0.60;;;0.60;;
11651;SDS011;5882;48.818;9.114;2022-11-21T03:02:23;0.70;;;0.70;;
11651;SDS011;5882;48.818;9.114;2022-11-21T03:04:49;0.68;;;0.68;;
11651;SDS011;5882;48.818;9.114;2022-11-21T03:07:16;0.60;;;0.60;;
11651;SDS011;5882;48.818;9.114;2022-11-21T03:09:43;0.60;;;0.60;;
11651;SDS011;5882;48.818;9.114;2022-11-21T03:12:09;0.60;;;0.60;;
11651;SDS011;5882;48.818;9.114;2022-11-21T03:14:36;0.60;;;0.60;;
11651;SDS011;5882;48.818;9.114;2022-11-21T03:17:04;0.60;;;0.60;;
11651;SDS011;5882;48.818;9.114;2022-11-21T03:19:30;0.68;;;0.68;;
11651;SDS011;5882;48.818;9.114;2022-11-21T03:22:02;0.70;;;0.70;;
11651;SDS011;5882;48.818;9.114;2022-11-21T03:24:28;0.60;;;0.60;;
11651;SDS011;5882;48.818;9.114;2022-11-21T03:26:55;0.60;;;0.60;;
11651;SDS011;5882;48.818;9.114;2022-11-21T03:29:21;0.60;;;0.60;;
11651;SDS011;5882;48.818;9.114;2022-11-21T03:31:48;0.60;;;0.60;;
11651;SDS011;5882;48.818;9.114;2022-11-21T03:34:16;0.65;;;0.65;;
11651;SDS011;5882;48.818;9.114;2022-11-21T03:36:42;0.70;;;0.70;;
11651;SDS011;5882;48.818;9.114;2022-11-21T03:39:09;0.68;;;0.68;;
11651;SDS011;5882;48.818;9.114;2022-11-21T03:41:35;0.60;;;0.60;;
11651;SDS011;5882;48.818;9.114;2022-11-21T03:44:02;0.60;;;0.60;;
11651;SDS011;5882;48.818;9.114;2022-11-21T03:46:31;0.68;;;0.68;;
11651;SDS011;5882;48.818;9.114;2022-11-21T03:48:58;0.60;;;0.60;;
11651;SDS011;5882;48.818;9.114;2022-11-21T03:51:26;0.70;;;0.70;;
11651;SDS011;5882;48.818;9.114;2022-11-21T03:53:53;0.68;;;0.68;;
11651;SDS011;5882;48.818;9.114;2022-11-21T03:56:19;0.60;;;0.60;;
11651;SDS011;5882;48.818;9.114;2022-11-21T03:58:46;0.70;;;0.70;;
11651;SDS011;5882;48.818;9.114;2022-11-21T04:01:12;0.68;;;0.68;;
11651;SDS011;5882;48.818;9.114;2022-11-21T04:03:39;0.77;;;0.77;;
11651;SDS011;5882;48.818;9.114;2022-11-21T04:06:06;0.73;;;0.73;;
11651;SDS011;5882;48.818;9.114;2022-11-21T04:08:34;0.70;;;0.70;;
11651;SDS011;5882;48.818;9.114;2022-11-21T04:11:01;0.70;;;0.70;;
11651;SDS011;5882;48.818;9.114;2022-11-21T04:13:27;0.60;;;0.60;;
11651;SDS011;5882;48.818;9.114;2022-11-21T04:15:54;0.70;;;0.70;;
11651;SDS011;5882;48.818;9.114;2022-11-21T04:18:20;0.65;;;0.65;;
11651;SDS011;5882;48.818;9.114;2022-11-21T04:20:47;0.60;;;0.60;;
11651;SDS011;5882;48.818;9.114;2022-11-21T04:23:14;0.60;;;0.60;;
11651;SDS011;5882;48.818;9.114;2022-11-21T04:25:42;0.60;;;0.60;;
11651;SDS011;5882;48.818;9.114;2022-11-21T04:28:10;0.68;;;0.68;;
11651;SDS011;5882;48.818;9.114;2022-11-21T04:30:37;0.60;;;0.60;;
11651;SDS011;5882;48.818;9.114;2022-11-21T04:33:04;1.42;;;0.70;;
11651;SDS011;5882;48.818;9.114;2022-11-21T04:35:30;0.70;;;0.70;;
11651;SDS011;5882;48.818;9.114;2022-11-21T04:37:57;0.70;;;0.70;;
11651;SDS011;5882;48.818;9.114;2022-11-21T04:40:27;0.70;;;0.70;;
11651;SDS011;5882;48.818;9.114;2022-11-21T04:42:55;0.60;;;0.60;;
11651;SDS011;5882;48.818;9.114;2022-11-21T04:45:22;0.63;;;0.63;;
11651;SDS011;5882;48.818;9.114;2022-11-21T04:47:49;0.70;;;0.70;;
11651;SDS011;5882;48.818;9.114;2022-11-21T04:50:16;0.82;;;0.80;;
11651;SDS011;5882;48.818;9.114;2022-11-21T04:52:48;0.77;;;0.75;;
11651;SDS011;5882;48.818;9.114;2022-11-21T04:55:15;0.60;;;0.60;;
11651;SDS011;5882;48.818;9.114;2022-11-21T04:57:41;0.70;;;0.70;;
11651;SDS011;5882;48.818;9.114;2022-11-21T05:00:09;0.70;;;0.70;;
11651;SDS011;5882;48.818;9.114;2022-11-21T05:02:36;0.80;;;0.80;;
11651;SDS011;5882;48.818;9.114;2022-11-21T05:05:03;0.70;;;0.70;;
11651;SDS011;5882;48.818;9.114;2022-11-21T05:07:29;1.27;;;0.90;;
11651;SDS011;5882;48.818;9.114;2022-11-21T05:09:56;0.70;;;0.70;;
11651;SDS011;5882;48.818;9.114;2022-11-21T05:12:22;0.70;;;0.70;;
11651;SDS011;5882;48.818;9.114;2022-11-21T05:15:07;0.75;;;0.75;;
11651;SDS011;5882;48.818;9.114;2022-11-21T05:17:35;0.77;;;0.77;;
11651;SDS011;5882;48.818;9.114;2022-11-21T05:20:01;0.88;;;0.88;;
11651;SDS011;5882;48.818;9.114;2022-11-21T05:22:28;1.10;;;1.00;;
11651;SDS011;5882;48.818;9.114;2022-11-21T05:24:55;1.00;;;1.00;;
11651;SDS011;5882;48.818;9.114;2022-11-21T05:27:21;0.70;;;0.70;;
11651;SDS011;5882;48.818;9.114;2022-11-21T05:29:48;1.20;;;0.98;;
11651;SDS011;5882;48.818;9.114;2022-11-21T05:32:14;1.52;;;1.23;;
11651;SDS011;5882;48.818;9.114;2022-11-21T05:34:42;1.10;;;1.10;;
11651;SDS011;5882;48.818;9.114;2022-11-21T05:37:09;1.33;;;1.00;;
11651;SDS011;5882;48.818;9.114;2022-11-21T05:39:35;1.30;;;0.90;;
11651;SDS011;5882;48.818;9.114;2022-11-21T05:42:02;1.00;;;0.90;;
11651;SDS011;5882;48.818;9.114;2022-11-21T05:44:28;0.90;;;0.90;;
11651;SDS011;5882;48.818;9.114;2022-11-21T05:46:54;1.60;;;0.95;;
11651;SDS011;5882;48.818;9.114;2022-11-21T05:49:20;1.20;;;1.00;;
11651;SDS011;5882;48.818;9.114;2022-11-21T05:51:48;1.45;;;1.00;;
11651;SDS011;5882;48.818;9.114;2022-11-21T05:54:15;1.20;;;1.10;;
11651;SDS011;5882;48.818;9.114;2022-11-21T05:56:42;1.40;;;1.30;;
11651;SDS011;5882;48.818;9.114;2022-11-21T05:59:09;1.30;;;1.20;;
11651;SDS011;5882;48.818;9.114;2022-11-21T06:01:35;1.20;;;1.20;;
11651;SDS011;5882;48.818;9.114;2022-11-21T06:04:20;1.45;;;1.35;;
11651;SDS011;5882;48.818;9.114;2022-11-21T06:06:46;1.17;;;1.08;;
11651;SDS011;5882;48.818;9.114;2022-11-21T06:09:14;2.78;;;1.10;;
11651;SDS011;5882;48.818;9.114;2022-11-21T06:11:41;1.35;;;0.93;;
11651;SDS011;5882;48.818;9.114;2022-11-21T06:14:07;1.05;;;1.05;;
11651;SDS011;5882;48.818;9.114;2022-11-21T06:16:34;1.05;;;1.05;;
11651;SDS011;5882;48.818;9.114;2022-11-21T06:19:00;2.58;;;1.33;;
11651;SDS011;5882;48.818;9.114;2022-11-21T06:21:27;1.20;;;1.10;;
11651;SDS011;5882;48.818;9.114;2022-11-21T06:23:56;1.40;;;1.30;;
11651;SDS011;5882;48.818;9.114;2022-11-21T06:26:25;1.00;;;1.00;;
11651;SDS011;5882;48.818;9.114;2022-11-21T06:28:52;0.93;;;0.93;;
11651;SDS011;5882;48.818;9.114;2022-11-21T06:31:20;0.90;;;0.80;;
11651;SDS011;5882;48.818;9.114;2022-11-21T06:33:50;1.00;;;0.82;;
11651;SDS011;5882;48.818;9.114;2022-11-21T06:36:16;0.90;;;0.90;;
11651;SDS011;5882;48.818;9.114;2022-11-21T06:38:43;0.95;;;0.90;;
11651;SDS011;5882;48.818;9.114;2022-11-21T06:41:10;0.85;;;0.85;;
11651;SDS011;5882;48.818;9.114;2022-11-21T06:43:38;0.82;;;0.82;;
11651;SDS011;5882;48.818;9.114;2022-11-21T06:46:05;0.70;;;0.70;;
11651;SDS011;5882;48.818;9.114;2022-11-21T06:48:32;0.82;;;0.82;;
11651;SDS011;5882;48.818;9.114;2022-11-21T06:51:02;0.90;;;0.90;;
11651;SDS011;5882;48.818;9.114;2022-11-21T06:53:29;1.23;;;1.00;;
11651;SDS011;5882;48.818;9.114;2022-11-21T06:55:57;0.90;;;0.90;;
11651;SDS011;5882;48.818;9.114;2022-11-21T06:58:23;1.27;;;1.20;;
11651;SDS011;5882;48.818;9.114;2022-11-21T07:00:51;1.65;;;1.20;;
11651;SDS011;5882;48.818;9.114;2022-11-21T07:03:17;1.58;;;1.23;;
11651;SDS011;5882;48.818;9.114;2022-11-21T07:05:45;1.20;;;1.10;;
11651;SDS011;5882;48.818;9.114;2022-11-21T07:08:12;0.85;;;0.85;;
11651;SDS011;5882;48.818;9.114;2022-11-21T07:10:38;0.80;;;0.80;;
11651;SDS011;5882;48.818;9.114;2022-11-21T07:13:05;0.82;;;0.82;;
11651;SDS011;5882;48.818;9.114;2022-11-21T07:15:48;0.95;;;0.95;;
11651;SDS011;5882;48.818;9.114;2022-11-21T07:18:17;0.95;;;0.95;;
11651;SDS011;5882;48.818;9.114;2022-11-21T07:20:44;1.52;;;0.98;;
11651;SDS011;5882;48.818;9.114;2022-11-21T07:23:11;0.90;;;0.90;;
11651;SDS011;5882;48.818;9.114;2022-11-21T07:25:38;1.42;;;1.02;;
11651;SDS011;5882;48.818;9.114;2022-11-21T07:28:05;1.20;;;1.10;;
11651;SDS011;5882;48.818;9.114;2022-11-21T07:30:32;1.80;;;1.23;;
11651;SDS011;5882;48.818;9.114;2022-11-21T07:33:00;0.90;;;0.90;;
11651;SDS011;5882;48.818;9.114;2022-11-21T07:35:35;1.42;;;1.30;;
11651;SDS011;5882;48.818;9.114;2022-11-21T07:38:02;1.58;;;1.20;;
11651;SDS011;5882;48.818;9.114;2022-11-21T07:40:29;1.30;;;1.20;;
11651;SDS011;5882;48.818;9.114;2022-11-21T07:43:08;0.98;;;0.98;;
11651;SDS011;5882;48.818;9.114;2022-11-21T07:45:37;1.10;;;1.00;;
11651;SDS011;5882;48.818;9.114;2022-11-21T07:48:05;0.90;;;0.90;;
11651;SDS011;5882;48.818;9.114;2022-11-21T07:50:32;4.10;;;1.67;;
11651;SDS011;5882;48.818;9.114;2022-11-21T07:53:03;1.83;;;1.10;;
11651;SDS011;5882;48.818;9.114;2022-11-21T07:55:30;1.60;;;1.15;;
11651;SDS011;5882;48.818;9.114;2022-11-21T07:57:57;1.30;;;1.05;;
11651;SDS011;5882;48.818;9.114;2022-11-21T08:00:25;1.58;;;1.10;;
11651;SDS011;5882;48.818;9.114;2022-11-21T08:02:51;1.27;;;1.20;;
11651;SDS011;5882;48.818;9.114;2022-11-21T08:05:20;2.35;;;1.60;;
11651;SDS011;5882;48.818;9.114;2022-11-21T08:07:58;1.20;;;1.20;;
11651;SDS011;5882;48.818;9.114;2022-11-21T08:10:26;1.20;;;1.10;;
11651;SDS011;5882;48.818;9.114;2022-11-21T08:12:53;2.00;;;1.13;;
11651;SDS011;5882;48.818;9.114;2022-11-21T08:15:19;1.50;;;0.95;;
11651;SDS011;5882;48.818;9.114;2022-11-21T08:17:46;5.10;;;1.00;;
11651;SDS011;5882;48.818;9.114;2022-11-21T08:20:12;0.73;;;0.73;;
11651;SDS011;5882;48.818;9.114;2022-11-21T08:22:39;2.28;;;1.20;;
11651;SDS011;5882;48.818;9.114;2022-11-21T08:25:09;1.27;;;1.17;;
11651;SDS011;5882;48.818;9.114;2022-11-21T08:27:40;0.93;;;0.93;;
11651;SDS011;5882;48.818;9.114;2022-11-21T08:30:23;1.35;;;1.00;;
11651;SDS011;5882;48.818;9.114;2022-11-21T08:32:52;1.02;;;1.00;;
11651;SDS011;5882;48.818;9.114;2022-11-21T08:35:19;1.10;;;1.00;;
11651;SDS011;5882;48.818;9.114;2022-11-21T08:37:45;0.98;;;0.93;;
11651;SDS011;5882;48.818;9.114;2022-11-21T08:40:12;2.45;;;1.38;;
11651;SDS011;5882;48.818;9.114;2022-11-21T08:42:38;1.08;;;0.98;;
11651;SDS011;5882;48.818;9.114;2022-11-21T08:45:07;1.35;;;1.10;;
11651;SDS011;5882;48.818;9.114;2022-11-21T08:47:34;0.93;;;0.93;;
11651;SDS011;5882;48.818;9.114;2022-11-21T08:50:00;1.77;;;0.98;;
11651;SDS011;5882;48.818;9.114;2022-11-21T08:52:30;2.15;;;0.98;;
11651;SDS011;5882;48.818;9.114;2022-11-21T08:54:56;1.15;;;0.90;;
11651;SDS011;5882;48.818;9.114;2022-11-21T08:57:23;0.88;;;0.88;;
11651;SDS011;5882;48.818;9.114;2022-11-21T08:59:49;1.02;;;0.93;;
11651;SDS011;5882;48.818;9.114;2022-11-21T09:02:17;0.95;;;0.93;;
11651;SDS011;5882;48.818;9.114;2022-11-21T09:04:44;1.02;;;1.00;;
11651;SDS011;5882;48.818;9.114;2022-11-21T09:07:10;3.15;;;1.08;;
11651;SDS011;5882;48.818;9.114;2022-11-21T09:09:39;1.15;;;1.05;;
11651;SDS011;5882;48.818;9.114;2022-11-21T09:12:06;1.40;;;1.20;;
11651;SDS011;5882;48.818;9.114;2022-11-21T09:14:32;1.60;;;1.20;;
11651;SDS011;5882;48.818;9.114;2022-11-21T09:17:18;1.20;;;1.10;;
11651;SDS011;5882;48.818;9.114;2022-11-21T09:20:02;1.23;;;1.00;;
11651;SDS011;5882;48.818;9.114;2022-11-21T09:22:31;1.17;;;1.17;;
11651;SDS011;5882;48.818;9.114;2022-11-21T09:24:58;2.50;;;1.13;;
11651;SDS011;5882;48.818;9.114;2022-11-21T09:27:24;1.52;;;1.10;;
11651;SDS011;5882;48.818;9.114;2022-11-21T09:29:54;2.25;;;0.98;;
11651;SDS011;5882;48.818;9.114;2022-11-21T09:32:22;1.48;;;0.90;;
11651;SDS011;5882;48.818;9.114;2022-11-21T09:34:49;0.80;;;0.80;;
11651;SDS011;5882;48.818;9.114;2022-11-21T09:37:19;1.80;;;1.00;;
11651;SDS011;5882;48.818;9.114;2022-11-21T09:39:45;1.05;;;1.00;;
11651;SDS011;5882;48.818;9.114;2022-11-21T09:42:19;2.63;;;1.00;;
11651;SDS011;5882;48.818;9.114;2022-11-21T09:44:57;3.70;;;1.20;;
11651;SDS011;5882;48.818;9.114;2022-11-21T09:47:28;1.02;;;0.98;;
11651;SDS011;5882;48.818;9.114;2022-11-21T09:49:58;0.82;;;0.82;;
11651;SDS011;5882;48.818;9.114;2022-11-21T09:52:27;3.08;;;1.13;;
11651;SDS011;5882;48.818;9.114;2022-11-21T09:54:56;1.75;;;1.15;;
11651;SDS011;5882;48.818;9.114;2022-11-21T09:57:26;1.15;;;0.85;;
11651;SDS011;5882;48.818;9.114;2022-11-21T09:59:53;1.13;;;0.80;;
11651;SDS011;5882;48.818;9.114;2022-11-21T10:02:23;1.60;;;0.90;;
11651;SDS011;5882;48.818;9.114;2022-11-21T10:04:51;2.70;;;1.00;;
11651;SDS011;5882;48.818;9.114;2022-11-21T10:07:30;1.52;;;1.00;;
11651;SDS011;5882;48.818;9.114;2022-11-21T10:10:02;1.80;;;0.93;;
11651;SDS011;5882;48.818;9.114;2022-11-21T10:12:35;2.90;;;1.17;;
11651;SDS011;5882;48.818;9.114;2022-11-21T10:20:23;2.25;;;0.82;;
11651;SDS011;5882;48.818;9.114;2022-11-21T10:22:59;4.18;;;1.10;;
11651;SDS011;5882;48.818;9.114;2022-11-21T10:25:32;2.00;;;0.88;;
11651;SDS011;5882;48.818;9.114;2022-11-21T10:28:04;1.67;;;0.90;;
11651;SDS011;5882;48.818;9.114;2022-11-21T10:30:35;2.05;;;0.90;;
11651;SDS011;5882;48.818;9.114;2022-11-21T10:33:12;1.30;;;0.90;;
11651;SDS011;5882;48.818;9.114;2022-11-21T10:35:42;0.82;;;0.80;;
11651;SDS011;5882;48.818;9.114;2022-11-21T10:38:18;1.40;;;1.30;;
11651;SDS011;5882;48.818;9.114;2022-11-21T10:40:49;1.08;;;1.08;;
11651;SDS011;5882;48.818;9.114;2022-11-21T10:43:21;1.15;;;1.00;;
11651;SDS011;5882;48.818;9.114;2022-11-21T10:46:06;2.40;;;0.90;;
11651;SDS011;5882;48.818;9.114;2022-11-21T10:48:33;2.15;;;1.10;;
11651;SDS011;5882;48.818;9.114;2022-11-21T10:53:43;0.80;;;0.80;;
11651;SDS011;5882;48.818;9.114;2022-11-21T10:56:35;0.77;;;0.77;;
11651;SDS011;5882;48.818;9.114;2022-11-21T10:59:11;2.53;;;0.90;;
11651;SDS011;5882;48.818;9.114;2022-11-21T11:01:39;2.15;;;1.02;;
11651;SDS011;5882;48.818;9.114;2022-11-21T11:04:19;3.22;;;1.38;;
11651;SDS011;5882;48.818;9.114;2022-11-21T11:06:46;0.82;;;0.80;;
11651;SDS011;5882;48.818;9.114;2022-11-21T11:09:30;1.65;;;0.98;;
11651;SDS011;5882;48.818;9.114;2022-11-21T11:12:20;0.77;;;0.77;;
11651;SDS011;5882;48.818;9.114;2022-11-21T11:14:51;0.60;;;0.60;;
11651;SDS011;5882;48.818;9.114;2022-11-21T11:17:25;1.15;;;1.00;;
11651;SDS011;5882;48.818;9.114;2022-11-21T11:20:00;1.88;;;1.17;;
11651;SDS011;5882;48.818;9.114;2022-11-21T11:22:32;1.00;;;0.95;;
11651;SDS011;5882;48.818;9.114;2022-11-21T11:25:00;1.75;;;1.00;;
11651;SDS011;5882;48.818;9.114;2022-11-21T11:27:35;1.20;;;0.90;;
11651;SDS011;5882;48.818;9.114;2022-11-21T11:30:13;2.75;;;0.90;;
11651;SDS011;5882;48.818;9.114;2022-11-21T11:32:49;1.25;;;0.98;;
11651;SDS011;5882;48.818;9.114;2022-11-21T11:35:20;0.90;;;0.90;;
11651;SDS011;5882;48.818;9.114;2022-11-21T11:37:53;1.30;;;0.90;;
11651;SDS011;5882;48.818;9.114;2022-11-21T11:40:28;1.08;;;0.90;;
11651;SDS011;5882;48.818;9.114;2022-11-21T11:42:57;0.80;;;0.80;;
11651;SDS011;5882;48.818;9.114;2022-11-21T11:48:48;0.90;;;0.90;;
11651;SDS011;5882;48.818;9.114;2022-11-21T11:51:17;1.15;;;1.00;;
11651;SDS011;5882;48.818;9.114;2022-11-21T11:53:47;0.80;;;0.80;;
11651;SDS011;5882;48.818;9.114;2022-11-21T11:56:19;1.25;;;1.10;;
11651;SDS011;5882;48.818;9.114;2022-11-21T11:58:47;0.88;;;0.88;;
11651;SDS011;5882;48.818;9.114;2022-11-21T12:01:15;1.77;;;0.90;;
11651;SDS011;5882;48.818;9.114;2022-11-21T12:03:47;2.17;;;0.90;;
11651;SDS011;5882;48.818;9.114;2022-11-21T12:06:18;0.63;;;0.63;;
11651;SDS011;5882;48.818;9.114;2022-11-21T12:08:50;0.82;;;0.80;;
11651;SDS011;5882;48.818;9.114;2022-11-21T12:11:21;2.38;;;1.00;;
11651;SDS011;5882;48.818;9.114;2022-11-21T12:14:10;0.70;;;0.70;;
11651;SDS011;5882;48.818;9.114;2022-11-21T12:16:59;2.75;;;1.00;;
11651;SDS011;5882;48.818;9.114;2022-11-21T12:19:26;1.55;;;0.95;;
11651;SDS011;5882;48.818;9.114;2022-11-21T12:21:53;0.82;;;0.82;;
11651;SDS011;5882;48.818;9.114;2022-11-21T12:24:20;1.63;;;0.90;;
11651;SDS011;5882;48.818;9.114;2022-11-21T12:26:50;0.88;;;0.82;;
11651;SDS011;5882;48.818;9.114;2022-11-21T12:29:30;0.85;;;0.80;;
11651;SDS011;5882;48.818;9.114;2022-11-21T12:34:54;1.25;;;1.00;;
11651;SDS011;5882;48.818;9.114;2022-11-21T12:37:27;0.98;;;0.80;;
11651;SDS011;5882;48.818;9.114;2022-11-21T12:39:59;3.50;;;0.95;;
11651;SDS011;5882;48.818;9.114;2022-11-21T12:42:35;0.65;;;0.65;;
11651;SDS011;5882;48.818;9.114;2022-11-21T12:45:29;0.80;;;0.80;;
11651;SDS011;5882;48.818;9.114;2022-11-21T12:48:16;1.65;;;0.75;;
11651;SDS011;5882;48.818;9.114;2022-11-21T12:51:08;1.23;;;0.90;;
11651;SDS011;5882;48.818;9.114;2022-11-21T12:53:55;1.50;;;0.90;;
11651;SDS011;5882;48.818;9.114;2022-11-21T12:56:54;0.70;;;0.70;;
11651;SDS011;5882;48.818;9.114;2022-11-21T12:59:24;1.05;;;0.93;;
11651;SDS011;5882;48.818;9.114;2022-11-21T13:01:52;2.95;;;0.82;;
11651;SDS011;5882;48.818;9.114;2022-11-21T13:04:25;1.02;;;0.85;;
11651;SDS011;5882;48.818;9.114;2022-11-21T13:06:53;2.20;;;1.10;;
11651;SDS011;5882;48.818;9.114;2022-11-21T13:09:21;1.00;;;1.00;;
11651;SDS011;5882;48.818;9.114;2022-11-21T13:11:49;0.70;;;0.70;;
11651;SDS011;5882;48.818;9.114;2022-11-21T13:19:58;3.58;;;1.08;;
11651;SDS011;5882;48.818;9.114;2022-11-21T13:25:12;1.33;;;1.00;;
11651;SDS011;5882;48.818;9.114;2022-11-21T13:27:39;5.03;;;1.27;;
11651;SDS011;5882;48.818;9.114;2022-11-21T13:30:15;1.13;;;0.80;;
11651;SDS011;5882;48.818;9.114;2022-11-21T13:32:43;1.00;;;0.95;;
11651;SDS011;5882;48.818;9.114;2022-11-21T13:38:00;1.23;;;0.80;;
11651;SDS011;5882;48.818;9.114;2022-11-21T13:40:33;2.75;;;1.13;;
11651;SDS011;5882;48.818;9.114;2022-11-21T13:43:19;1.90;;;1.08;;
11651;SDS011;5882;48.818;9.114;2022-11-21T13:45:47;2.40;;;1.15;;
11651;SDS011;5882;48.818;9.114;2022-11-21T13:48:25;0.75;;;0.75;;
11651;SDS011;5882;48.818;9.114;2022-11-21T13:56:35;1.52;;;0.90;;
11651;SDS011;5882;48.818;9.114;2022-11-21T13:59:16;1.63;;;0.85;;
11651;SDS011;5882;48.818;9.114;2022-11-21T14:01:53;1.45;;;1.10;;
11651;SDS011;5882;48.818;9.114;2022-11-21T14:04:34;1.58;;;1.08;;
11651;SDS011;5882;48.818;9.114;2022-11-21T14:07:20;1.13;;;0.85;;
11651;SDS011;5882;48.818;9.114;2022-11-21T14:09:54;1.17;;;1.10;;
11651;SDS011;5882;48.818;9.114;2022-11-21T14:12:23;0.95;;;0.80;;
11651;SDS011;5882;48.818;9.114;2022-11-21T14:14:52;1.45;;;1.00;;
11651;SDS011;5882;48.818;9.114;2022-11-21T14:17:26;1.10;;;1.00;;
11651;SDS011;5882;48.818;9.114;2022-11-21T14:19:54;3.03;;;0.90;;
11651;SDS011;5882;48.818;9.114;2022-11-21T14:22:26;0.88;;;0.88;;
11651;SDS011;5882;48.818;9.114;2022-11-21T14:24:53;1.25;;;1.10;;
11651;SDS011;5882;48.818;9.114;2022-11-21T14:27:23;1.70;;;1.10;;
11651;SDS011;5882;48.818;9.114;2022-11-21T14:29:51;1.15;;;0.98;;
11651;SDS011;5882;48.818;9.114;2022-11-21T14:32:24;0.82;;;0.82;;
11651;SDS011;5882;48.818;9.114;2022-11-21T14:34:50;1.02;;;0.85;;
11651;SDS011;5882;48.818;9.114;2022-11-21T14:37:19;0.90;;;0.90;;
11651;SDS011;5882;48.818;9.114;2022-11-21T14:39:46;1.60;;;0.95;;
11651;SDS011;5882;48.818;9.114;2022-11-21T14:42:13;1.38;;;0.90;;
11651;SDS011;5882;48.818;9.114;2022-11-21T14:44:42;3.17;;;1.35;;
11651;SDS011;5882;48.818;9.114;2022-11-21T14:47:12;4.07;;;1.30;;
11651;SDS011;5882;48.818;9.114;2022-11-21T14:49:46;1.45;;;1.13;;
11651;SDS011;5882;48.818;9.114;2022-11-21T14:52:15;1.00;;;0.90;;
11651;SDS011;5882;48.818;9.114;2022-11-21T14:54:44;2.00;;;0.93;;
11651;SDS011;5882;48.818;9.114;2022-11-21T14:57:17;1.92;;;1.25;;
11651;SDS011;5882;48.818;9.114;2022-11-21T14:59:46;2.70;;;1.05;;
11651;SDS011;5882;48.818;9.114;2022-11-21T15:02:13;1.35;;;1.15;;
11651;SDS011;5882;48.818;9.114;2022-11-21T15:04:42;3.03;;;1.33;;
11651;SDS011;5882;48.818;9.114;2022-11-21T15:07:14;3.30;;;1.60;;
11651;SDS011;5882;48.818;9.114;2022-11-21T15:09:43;2.50;;;1.38;;
11651;SDS011;5882;48.818;9.114;2022-11-21T15:12:09;1.00;;;1.00;;
11651;SDS011;5882;48.818;9.114;2022-11-21T15:14:37;2.70;;;1.83;;
11651;SDS011;5882;48.818;9.114;2022-11-21T15:17:09;2.15;;;1.38;;
11651;SDS011;5882;48.818;9.114;2022-11-21T15:19:37;1.60;;;1.13;;
11651;SDS011;5882;48.818;9.114;2022-11-21T15:22:04;5.93;;;1.00;;
11651;SDS011;5882;48.818;9.114;2022-11-21T15:24:33;1.15;;;1.08;;
11651;SDS011;5882;48.818;9.114;2022-11-21T15:29:43;2.10;;;0.90;;
11651;SDS011;5882;48.818;9.114;2022-11-21T15:32:11;2.45;;;1.05;;
11651;SDS011;5882;48.818;9.114;2022-11-21T15:34:38;1.38;;;1.02;;
11651;SDS011;5882;48.818;9.114;2022-11-21T15:37:05;1.25;;;1.15;;
11651;SDS011;5882;48.818;9.114;2022-11-21T15:39:41;1.23;;;1.13;;
11651;SDS011;5882;48.818;9.114;2022-11-21T15:42:28;2.63;;;1.65;;
11651;SDS011;5882;48.818;9.114;2022-11-21T15:44:57;1.20;;;1.10;;
11651;SDS011;5882;48.818;9.114;2022-11-21T15:47:26;1.10;;;1.10;;